createdAt,value
2022-11-02T00:04:39.256Z,99114.91
2022-11-02T00:09:41.390Z,99104.50
2022-11-02T00:14:43.538Z,99091.47
2022-11-02T00:19:45.653Z,99087.25
2022-11-02T00:24:47.839Z,99075.81
2022-11-02T00:30:09.690Z,99113.56
2022-11-02T00:35:11.907Z,99038.34
2022-11-02T00:40:14.172Z,99085.50
2022-11-02T00:45:34.892Z,99113.53
2022-11-02T00:50:37.589Z,99095.00
2022-11-02T00:55:59.044Z,99112.53
2022-11-02T01:01:05.674Z,99078.38
2022-11-02T01:06:12.661Z,99076.72
2022-11-02T01:11:20.546Z,99081.03
2022-11-02T01:16:41.749Z,99087.88
2022-11-02T01:22:02.700Z,99063.69
2022-11-02T01:27:05.026Z,99119.53
2022-11-02T01:32:07.224Z,99068.03
2022-11-02T01:37:10.298Z,99087.44
2022-11-02T01:42:21.895Z,99061.22
2022-11-02T01:47:46.029Z,99052.41
2022-11-02T01:52:48.470Z,99102.28
2022-11-02T01:58:11.042Z,99110.03
2022-11-02T02:03:18.594Z,99012.97
2022-11-02T02:08:23.821Z,99107.00
2022-11-02T02:13:27.787Z,98923.75
2022-11-02T02:18:53.647Z,99088.25
2022-11-02T02:24:12.153Z,99053.09
2022-11-02T02:29:23.395Z,98998.31
2022-11-02T02:34:52.172Z,98996.53
2022-11-02T02:40:27.006Z,98996.28
2022-11-02T02:45:55.393Z,99046.13
2022-11-02T02:51:04.570Z,99050.47
2022-11-02T02:56:10.282Z,99072.34
2022-11-02T03:01:14.946Z,99052.22
2022-11-02T03:06:17.324Z,99098.63
2022-11-02T03:11:24.775Z,99104.63
2022-11-02T03:16:54.833Z,99103.03
2022-11-02T03:22:20.927Z,99010.13
2022-11-02T03:27:51.694Z,99071.53
2022-11-02T03:33:08.931Z,98977.06
2022-11-02T03:38:19.536Z,98958.53
2022-11-02T03:43:24.409Z,99028.53
2022-11-02T03:48:34.942Z,99043.44
2022-11-02T03:53:50.122Z,98974.53
2022-11-02T03:58:53.755Z,99051.34
2022-11-02T04:03:56.447Z,99074.06
2022-11-02T04:08:58.917Z,99024.16
2022-11-02T04:14:19.884Z,99007.63
2022-11-02T04:19:28.149Z,99052.94
2022-11-02T04:25:12.838Z,99058.25
2022-11-02T04:30:18.878Z,99037.19
2022-11-02T04:35:21.237Z,99058.09
2022-11-02T04:40:23.528Z,99095.69
2022-11-02T04:45:26.141Z,99056.50
2022-11-02T04:50:29.799Z,99033.69
2022-11-02T04:55:33.833Z,99026.25
2022-11-02T05:00:36.164Z,98896.84
2022-11-02T05:05:38.920Z,99085.50
2022-11-02T05:10:41.973Z,98981.34
2022-11-02T05:15:44.605Z,99076.03
2022-11-02T05:20:54.308Z,99042.88
2022-11-02T05:26:05.394Z,99051.63
2022-11-02T05:31:09.545Z,99047.94
2022-11-02T05:36:13.049Z,98999.81
2022-11-02T05:41:19.959Z,99028.88
2022-11-02T05:46:23.554Z,98942.41
2022-11-02T05:51:25.856Z,99046.38
2022-11-02T05:56:47.176Z,98983.25
2022-11-02T06:01:50.102Z,99038.25
2022-11-02T06:06:52.386Z,99048.53
2022-11-02T06:11:56.480Z,99091.91
2022-11-02T06:16:58.848Z,99048.22
2022-11-02T06:22:01.211Z,99058.56
2022-11-02T06:27:03.554Z,99030.75
2022-11-02T06:32:06.080Z,99007.22
2022-11-02T06:37:08.334Z,99091.19
2022-11-02T06:42:10.644Z,99062.41
2022-11-02T06:47:33.054Z,99081.69
2022-11-02T06:52:53.833Z,99045.22
2022-11-02T06:57:56.122Z,99026.84
2022-11-02T07:03:07.165Z,98963.16
2022-11-02T07:08:09.847Z,99059.25
2022-11-02T07:13:12.082Z,99046.06
2022-11-02T07:18:14.533Z,98994.56
2022-11-02T07:23:31.779Z,99054.03
2022-11-02T07:28:34.048Z,98961.41
2022-11-02T07:33:36.255Z,99074.03
2022-11-02T07:38:38.528Z,99064.31
2022-11-02T07:44:00.009Z,99098.44
2022-11-02T07:49:08.945Z,99100.22
2022-11-02T07:54:11.182Z,99119.34
2022-11-02T07:59:13.707Z,99106.31
2022-11-02T08:04:16.012Z,99092.31
2022-11-02T08:09:19.521Z,99092.34
2022-11-02T08:14:21.673Z,99061.13
2022-11-02T08:19:24.123Z,99097.00
2022-11-02T08:24:26.425Z,99031.53
2022-11-02T08:29:28.623Z,99061.28
2022-11-02T08:34:30.841Z,99078.59
2022-11-02T08:39:33.066Z,99026.38
2022-11-02T08:44:38.808Z,99104.13
2022-11-02T08:49:44.876Z,99095.38
2022-11-02T08:54:47.147Z,99087.66
2022-11-02T09:00:08.771Z,99075.44
2022-11-02T09:05:11.607Z,99026.44
2022-11-02T09:10:34.498Z,99121.88
2022-11-02T09:15:39.932Z,99070.41
2022-11-02T09:20:42.351Z,99044.16
2022-11-02T09:25:47.008Z,99112.50
2022-11-02T09:30:49.413Z,98954.53
2022-11-02T09:35:51.734Z,99054.91
2022-11-02T09:41:00.037Z,99097.97
2022-11-02T09:46:12.083Z,98992.22
2022-11-02T09:51:41.916Z,99013.44
2022-11-02T09:56:44.942Z,99061.97
2022-11-02T10:02:05.781Z,99098.81
2022-11-02T10:07:41.750Z,99106.75
2022-11-02T10:13:03.322Z,99107.66
2022-11-02T10:18:06.985Z,99072.59
2022-11-02T10:23:23.354Z,99070.97
2022-11-02T10:28:30.043Z,99107.53
2022-11-02T10:33:32.414Z,99066.41
2022-11-02T10:38:59.140Z,99104.97
2022-11-02T10:44:29.225Z,99112.81
2022-11-02T10:49:56.559Z,99123.19
2022-11-02T10:54:58.928Z,99095.72
2022-11-02T11:00:23.864Z,99129.13
2022-11-02T11:05:26.139Z,99081.06
2022-11-02T11:10:47.273Z,99085.09
2022-11-02T11:16:10.460Z,99078.41
2022-11-02T11:21:37.584Z,99102.00
2022-11-02T11:26:40.142Z,99053.09
2022-11-02T11:31:42.552Z,99019.00
2022-11-02T11:36:46.340Z,99096.56
2022-11-02T11:41:48.838Z,99103.59
2022-11-02T11:46:54.805Z,99129.03
2022-11-02T11:51:57.802Z,99126.25
2022-11-02T11:57:28.401Z,99129.13
2022-11-02T12:02:41.060Z,99118.47
2022-11-02T12:08:27.717Z,99135.03
2022-11-02T12:13:56.697Z,99012.38
2022-11-02T12:19:04.894Z,99141.84
2022-11-02T12:24:19.149Z,99145.97
2022-11-02T12:29:39.035Z,99112.63
2022-11-02T12:35:02.810Z,99137.13
2022-11-02T12:40:22.725Z,99122.03
2022-11-02T12:46:03.945Z,99150.06
2022-11-02T12:51:19.948Z,99114.81
2022-11-02T12:56:47.307Z,99148.84
2022-11-02T13:01:53.304Z,99100.47
2022-11-02T13:07:18.892Z,99121.06
2022-11-02T13:12:23.548Z,99098.81
2022-11-02T13:17:45.363Z,99165.41
2022-11-02T13:22:54.856Z,99140.81
2022-11-02T13:28:05.181Z,99054.00
2022-11-02T13:33:17.006Z,99163.34
2022-11-02T13:38:36.892Z,99168.38
2022-11-02T13:43:52.003Z,99177.13
2022-11-02T13:49:15.348Z,99112.75
2022-11-02T13:54:31.009Z,99173.22
2022-11-02T13:59:43.423Z,99158.13
2022-11-02T14:04:48.780Z,99159.56
2022-11-02T14:09:57.952Z,99115.97
2022-11-02T14:15:23.774Z,99109.75
2022-11-02T14:20:35.114Z,99189.97
2022-11-02T14:26:01.358Z,99181.28
2022-11-02T14:31:03.472Z,99181.06
2022-11-02T14:36:30.316Z,99186.34
2022-11-02T14:42:10.297Z,99121.47
2022-11-02T14:47:18.172Z,99171.81
2022-11-02T14:52:27.658Z,99190.25
2022-11-02T14:57:43.512Z,99177.75
2022-11-02T15:02:46.251Z,99123.19
2022-11-02T15:08:07.091Z,99134.81
2022-11-02T15:13:36.931Z,99160.97
2022-11-02T15:18:40.777Z,99082.81
2022-11-02T15:24:00.888Z,99189.75
2022-11-02T15:29:05.302Z,99158.06
2022-11-02T15:34:17.806Z,99049.34
2022-11-02T15:39:20.208Z,99155.06
2022-11-02T15:44:41.240Z,99201.50
2022-11-02T15:50:05.383Z,99195.66
2022-11-02T15:55:40.132Z,99149.81
2022-11-02T16:00:43.877Z,99065.66
2022-11-02T16:05:47.404Z,99089.03
2022-11-02T16:10:49.928Z,99145.53
2022-11-02T16:16:04.753Z,99068.72
2022-11-02T16:21:09.918Z,99182.09
2022-11-02T16:26:31.115Z,99196.00
2022-11-02T16:31:52.083Z,99121.41
2022-11-02T16:36:54.920Z,99125.91
2022-11-02T16:41:59.753Z,99195.47
2022-11-02T16:47:08.567Z,99226.94
2022-11-02T16:52:34.773Z,99225.25
2022-11-02T16:57:55.719Z,99201.41
2022-11-02T17:02:58.257Z,99192.44
2022-11-02T17:08:33.079Z,99189.06
2022-11-02T17:13:37.748Z,99189.66
2022-11-02T17:18:40.337Z,99213.81
2022-11-02T17:23:47.966Z,99218.41
2022-11-02T17:29:11.561Z,99213.97
2022-11-02T17:34:20.072Z,99210.22
2022-11-02T17:39:22.422Z,99189.72
2022-11-02T17:44:24.779Z,99224.53
2022-11-02T17:49:27.024Z,99239.50
2022-11-02T17:54:47.853Z,99199.19
2022-11-02T18:00:09.739Z,99241.09
2022-11-02T18:05:28.823Z,99205.16
2022-11-02T18:10:33.203Z,99241.66
2022-11-02T18:15:37.803Z,99109.69
2022-11-02T18:20:42.219Z,99230.50
2022-11-02T18:26:03.488Z,99219.81
2022-11-02T18:31:07.110Z,99259.19
2022-11-02T18:36:11.207Z,99217.72
2022-11-02T18:41:35.101Z,99210.34
2022-11-02T18:46:41.705Z,99213.00
2022-11-02T18:51:47.959Z,99217.41
2022-11-02T18:56:50.402Z,99242.56
2022-11-02T19:02:11.773Z,99233.44
2022-11-02T19:07:32.527Z,99244.66
2022-11-02T19:12:35.043Z,99270.94
2022-11-02T19:17:37.380Z,99210.44
2022-11-02T19:22:39.817Z,99227.78
2022-11-02T19:27:42.150Z,99147.16
2022-11-02T19:33:03.344Z,99192.41
2022-11-02T19:38:05.804Z,99270.59
2022-11-02T19:43:08.381Z,99203.41
2022-11-02T19:48:10.918Z,99222.81
2022-11-02T19:53:13.123Z,99272.44
2022-11-02T19:58:15.370Z,99234.72
2022-11-02T20:03:17.896Z,99214.66
2022-11-02T20:08:20.206Z,99249.00
2022-11-02T20:13:22.529Z,99251.56
2022-11-02T20:18:45.688Z,99267.38
2022-11-02T20:23:48.584Z,99162.06
2022-11-02T20:28:51.455Z,99274.13
2022-11-02T20:33:53.804Z,99248.47
2022-11-02T20:38:56.611Z,99100.66
2022-11-02T20:43:58.889Z,99198.16
2022-11-02T20:49:08.683Z,99202.00
2022-11-02T20:54:24.084Z,99200.75
2022-11-02T20:59:27.031Z,99157.63
2022-11-02T21:04:29.296Z,99255.75
2022-11-02T21:09:31.552Z,99295.00
2022-11-02T21:14:33.890Z,99286.44
2022-11-02T21:20:02.742Z,99179.84
2022-11-02T21:25:11.778Z,99245.69
2022-11-02T21:30:14.164Z,99182.50
2022-11-02T21:35:34.908Z,99299.81
2022-11-02T21:40:37.120Z,99233.22
2022-11-02T21:46:00.535Z,99236.84
2022-11-02T21:51:22.399Z,99208.91
2022-11-02T21:56:26.889Z,99177.78
2022-11-02T22:01:47.159Z,99254.31
2022-11-02T22:06:50.222Z,99303.09
2022-11-02T22:12:11.512Z,99177.72
2022-11-02T22:17:35.731Z,99200.53
2022-11-02T22:22:36.219Z,99305.38
2022-11-02T22:27:38.505Z,99226.72
2022-11-02T22:32:40.790Z,99259.91
2022-11-02T22:38:01.553Z,99234.22
2022-11-02T22:43:04.084Z,99261.47
2022-11-02T22:48:06.663Z,99246.56
2022-11-02T22:53:09.132Z,99282.53
2022-11-02T22:58:11.505Z,99269.13
2022-11-02T23:03:33.217Z,99277.81
2022-11-02T23:08:40.196Z,99278.59
2022-11-02T23:13:43.925Z,99261.97
2022-11-02T23:19:04.668Z,99284.84
2022-11-02T23:24:26.316Z,99280.03
2022-11-02T23:29:47.063Z,99277.19
2022-11-02T23:35:07.790Z,99226.47
2022-11-02T23:40:12.014Z,99302.28
2022-11-02T23:45:32.858Z,99191.00
2022-11-02T23:50:54.109Z,99273.63
2022-11-02T23:56:34.952Z,99310.97
